Time,TemperatureF,DewpointF,PressureIn,WindDirection,WindDirectionDegrees,WindSpeedMPH,WindSpeedGustMPH,Humidity,HourlyPrecipIn,Conditions,Clouds,dailyrainin,SoftwareType,DateUTC
2013-08-18 00:11:00,65.6,65.0,30.14,East,92,0.0,0.0,99,0.00,,,0.09,weatherlink.com 1.10,2013-08-18 04:11:00,
2013-08-18 00:26:00,65.5,65.0,30.13,East,101,0.0,3.0,99,0.00,,,0.09,weatherlink.com 1.10,2013-08-18 04:26:00,
2013-08-18 00:41:00,65.5,65.0,30.12,East,89,0.0,2.0,99,0.00,,,0.09,weatherlink.com 1.10,2013-08-18 04:41:00,
2013-08-18 00:56:00,65.5,65.0,30.11,SE,133,0.0,3.0,99,0.01,,,0.10,weatherlink.com 1.10,2013-08-18 04:56:00,
2013-08-18 01:11:00,65.4,65.0,30.11,ESE,123,1.0,3.0,99,0.01,,,0.10,weatherlink.com 1.10,2013-08-18 05:11:00,
2013-08-18 01:26:00,65.4,65.0,30.11,East,88,0.0,2.0,99,0.01,,,0.10,weatherlink.com 1.10,2013-08-18 05:26:00,
2013-08-18 01:41:00,65.4,65.0,30.10,ESE,111,0.0,3.0,99,0.01,,,0.10,weatherlink.com 1.10,2013-08-18 05:41:00,
2013-08-18 01:56:00,65.4,65.0,30.09,ESE,108,1.0,4.0,99,0.00,,,0.10,weatherlink.com 1.10,2013-08-18 05:56:00,
2013-08-18 02:11:00,65.5,66.0,30.09,ESE,102,0.0,2.0,100,0.00,,,0.10,weatherlink.com 1.10,2013-08-18 06:11:00,
2013-08-18 02:26:00,65.5,66.0,30.10,ESE,120,0.0,2.0,100,0.00,,,0.10,weatherlink.com 1.10,2013-08-18 06:26:00,
2013-08-18 02:41:00,65.6,66.0,30.10,SE,127,0.0,1.0,100,0.00,,,0.10,weatherlink.com 1.10,2013-08-18 06:41:00,
2013-08-18 02:57:00,65.6,65.0,30.10,ESE,117,0.0,2.0,99,0.00,,,0.10,weatherlink.com 1.10,2013-08-18 06:57:00,
2013-08-18 03:11:00,65.7,65.0,30.11,East,94,0.0,1.0,99,0.00,,,0.10,weatherlink.com 1.10,2013-08-18 07:11:00,
2013-08-18 03:26:00,65.7,65.0,30.11,ESE,110,0.0,1.0,99,0.01,,,0.11,weatherlink.com 1.10,2013-08-18 07:26:00,
2013-08-18 03:41:00,65.6,65.0,30.10,ESE,111,1.0,2.0,99,0.02,,,0.12,weatherlink.com 1.10,2013-08-18 07:41:00,
2013-08-18 03:56:00,65.6,65.0,30.10,ESE,117,0.0,1.0,99,0.04,,,0.14,weatherlink.com 1.10,2013-08-18 07:56:00,
2013-08-18 04:11:00,65.6,65.0,30.10,ESE,106,0.0,3.0,99,0.05,,,0.15,weatherlink.com 1.10,2013-08-18 08:11:00,
2013-08-18 04:26:00,65.5,65.0,30.10,East,101,0.0,3.0,99,0.04,,,0.15,weatherlink.com 1.10,2013-08-18 08:26:00,
2013-08-18 04:41:00,65.4,65.0,30.09,East,94,0.0,5.0,99,0.03,,,0.15,weatherlink.com 1.10,2013-08-18 08:41:00,
2013-08-18 04:56:00,65.5,65.0,30.11,East,95,0.0,1.0,99,0.01,,,0.15,weatherlink.com 1.10,2013-08-18 08:56:00,
2013-08-18 05:11:00,65.5,65.0,30.11,ESE,102,0.0,1.0,99,0.00,,,0.15,weatherlink.com 1.10,2013-08-18 09:11:00,
2013-08-18 05:26:00,65.5,65.0,30.11,SE,133,0.0,1.0,99,0.00,,,0.15,weatherlink.com 1.10,2013-08-18 09:26:00,
2013-08-18 05:41:00,65.6,65.0,30.12,East,97,0.0,1.0,99,0.01,,,0.16,weatherlink.com 1.10,2013-08-18 09:41:00,
2013-08-18 05:56:00,65.6,65.0,30.12,ESE,115,0.0,1.0,99,0.02,,,0.00,weatherlink.com 1.10,2013-08-18 09:56:00,
2013-08-18 06:12:00,65.6,65.0,30.12,ESE,109,0.0,1.0,99,0.02,,,0.00,weatherlink.com 1.10,2013-08-18 10:12:00,
2013-08-18 06:27:00,65.6,66.0,30.12,ESE,116,0.0,3.0,100,0.03,,,0.01,weatherlink.com 1.10,2013-08-18 10:27:00,
2013-08-18 06:42:00,65.7,66.0,30.13,East,83,0.0,2.0,100,0.02,,,0.01,weatherlink.com 1.10,2013-08-18 10:42:00,
2013-08-18 06:57:00,65.8,66.0,30.14,East,98,0.0,2.0,100,0.01,,,0.01,weatherlink.com 1.10,2013-08-18 10:57:00,
2013-08-18 07:12:00,65.9,66.0,30.14,East,96,0.0,1.0,100,0.01,,,0.01,weatherlink.com 1.10,2013-08-18 11:12:00,
2013-08-18 07:27:00,66.0,66.0,30.14,SE,139,0.0,2.0,100,0.00,,,0.01,weatherlink.com 1.10,2013-08-18 11:27:00,
2013-08-18 07:42:00,66.3,66.0,30.15,East,98,0.0,0.0,100,0.00,,,0.01,weatherlink.com 1.10,2013-08-18 11:42:00,
2013-08-18 07:57:00,66.4,66.0,30.15,SE,128,0.0,1.0,100,0.00,,,0.01,weatherlink.com 1.10,2013-08-18 11:57:00,
2013-08-18 08:12:00,66.6,67.0,30.15,East,91,0.0,2.0,100,0.00,,,0.01,weatherlink.com 1.10,2013-08-18 12:12:00,
2013-08-18 08:43:00,67.2,67.0,30.17,East,84,0.0,0.0,100,0.00,,,0.01,weatherlink.com 1.10,2013-08-18 12:43:00,
2013-08-18 08:57:00,67.6,68.0,30.17,East,84,0.0,0.0,100,0.00,,,0.01,weatherlink.com 1.10,2013-08-18 12:57:00,
2013-08-18 09:12:00,67.8,68.0,30.17,East,101,0.0,1.0,100,0.00,,,0.01,weatherlink.com 1.10,2013-08-18 13:12:00,
2013-08-18 09:27:00,67.9,68.0,30.17,East,98,0.0,2.0,100,0.00,,,0.01,weatherlink.com 1.10,2013-08-18 13:27:00,
2013-08-18 09:42:00,68.2,68.0,30.18,East,98,0.0,0.0,100,0.00,,,0.01,weatherlink.com 1.10,2013-08-18 13:42:00,
2013-08-18 09:57:00,68.5,69.0,30.17,ESE,105,0.0,1.0,100,0.00,,,0.01,weatherlink.com 1.10,2013-08-18 13:57:00,
2013-08-18 10:12:00,68.6,68.0,30.16,ESE,103,0.0,3.0,99,0.00,,,0.01,weatherlink.com 1.10,2013-08-18 14:12:00,
2013-08-18 10:27:00,68.8,69.0,30.17,ESE,105,0.0,4.0,99,0.00,,,0.01,weatherlink.com 1.10,2013-08-18 14:27:00,
2013-08-18 10:42:00,69.0,69.0,30.18,East,98,0.0,2.0,98,0.00,,,0.01,weatherlink.com 1.10,2013-08-18 14:42:00,
2013-08-18 10:57:00,69.4,69.0,30.19,East,96,0.0,1.0,98,0.00,,,0.01,weatherlink.com 1.10,2013-08-18 14:57:00,
2013-08-18 11:12:00,70.3,70.0,30.18,East,93,0.0,1.0,98,0.00,,,0.01,weatherlink.com 1.10,2013-08-18 15:12:00,
2013-08-18 11:27:00,71.2,70.0,30.18,East,95,1.0,3.0,96,0.00,,,0.01,weatherlink.com 1.10,2013-08-18 15:27:00,
2013-08-18 11:42:00,72.8,71.0,30.18,SE,129,0.0,3.0,94,0.00,,,0.01,weatherlink.com 1.10,2013-08-18 15:42:00,
2013-08-18 11:57:00,72.3,70.0,30.18,ESE,108,0.0,3.0,92,0.00,,,0.01,weatherlink.com 1.10,2013-08-18 15:57:00,
2013-08-18 12:12:00,72.5,70.0,30.18,ESE,117,0.0,4.0,91,0.00,,,0.01,weatherlink.com 1.10,2013-08-18 16:12:00,
2013-08-18 12:27:00,74.7,70.0,30.18,East,100,1.0,5.0,86,0.00,,,0.01,weatherlink.com 1.10,2013-08-18 16:27:00,
2013-08-18 12:42:00,73.4,70.0,30.16,ESE,109,1.0,3.0,89,0.00,,,0.01,weatherlink.com 1.10,2013-08-18 16:42:00,
2013-08-18 12:57:00,72.6,70.0,30.16,East,94,0.0,4.0,91,0.00,,,0.01,weatherlink.com 1.10,2013-08-18 16:57:00,
2013-08-18 13:12:00,72.6,70.0,30.16,East,94,0.0,2.0,92,0.00,,,0.01,weatherlink.com 1.10,2013-08-18 17:12:00,
2013-08-18 13:27:00,72.4,70.0,30.18,East,92,0.0,2.0,92,0.05,,,0.06,weatherlink.com 1.10,2013-08-18 17:27:00,
2013-08-18 13:42:00,71.0,70.0,30.16,East,88,0.0,2.0,97,0.17,,,0.18,weatherlink.com 1.10,2013-08-18 17:42:00,
2013-08-18 13:57:00,71.8,71.0,30.17,ESE,103,0.0,1.0,97,0.18,,,0.19,weatherlink.com 1.10,2013-08-18 17:57:00,
2013-08-18 14:12:00,71.4,70.0,30.16,East,98,0.0,1.0,96,0.18,,,0.19,weatherlink.com 1.10,2013-08-18 18:12:00,
2013-08-18 14:27:00,71.5,70.0,30.16,ESE,112,0.0,3.0,96,0.13,,,0.19,weatherlink.com 1.10,2013-08-18 18:27:00,
2013-08-18 14:42:00,71.9,71.0,30.16,ESE,104,0.0,1.0,95,0.01,,,0.19,weatherlink.com 1.10,2013-08-18 18:42:00,
2013-08-18 14:57:00,71.5,70.0,30.16,ESE,111,0.0,1.0,96,0.00,,,0.19,weatherlink.com 1.10,2013-08-18 18:57:00,
2013-08-18 15:12:00,71.4,70.0,30.15,East,101,0.0,3.0,96,0.00,,,0.19,weatherlink.com 1.10,2013-08-18 19:12:00,
2013-08-18 15:27:00,72.0,71.0,30.15,East,85,0.0,4.0,95,0.00,,,0.19,weatherlink.com 1.10,2013-08-18 19:27:00,
2013-08-18 15:42:00,72.1,71.0,30.14,East,97,0.0,3.0,96,0.00,,,0.19,weatherlink.com 1.10,2013-08-18 19:42:00,
2013-08-18 15:58:00,72.4,71.0,30.13,ESE,113,0.0,5.0,94,0.00,,,0.19,weatherlink.com 1.10,2013-08-18 19:58:00,
2013-08-18 16:13:00,73.1,71.0,30.12,ESE,103,0.0,4.0,93,0.00,,,0.19,weatherlink.com 1.10,2013-08-18 20:13:00,
2013-08-18 16:28:00,73.5,72.0,30.12,East,84,0.0,4.0,95,0.00,,,0.19,weatherlink.com 1.10,2013-08-18 20:28:00,
2013-08-18 16:43:00,73.6,71.0,30.11,ESE,108,1.0,4.0,92,0.00,,,0.19,weatherlink.com 1.10,2013-08-18 20:43:00,
2013-08-18 16:58:00,73.7,71.0,30.11,ESE,107,0.0,2.0,92,0.00,,,0.19,weatherlink.com 1.10,2013-08-18 20:58:00,
2013-08-18 17:13:00,73.8,72.0,30.11,SE,133,0.0,1.0,94,0.00,,,0.19,weatherlink.com 1.10,2013-08-18 21:13:00,
2013-08-18 17:28:00,74.1,73.0,30.11,ESE,111,0.0,2.0,95,0.00,,,0.19,weatherlink.com 1.10,2013-08-18 21:28:00,
2013-08-18 17:43:00,75.0,73.0,30.11,ESE,122,1.0,1.0,92,0.00,,,0.19,weatherlink.com 1.10,2013-08-18 21:43:00,
2013-08-18 17:58:00,73.9,72.0,30.10,East,99,0.0,3.0,92,0.00,,,0.19,weatherlink.com 1.10,2013-08-18 21:58:00,
2013-08-18 18:13:00,73.5,71.0,30.10,ESE,113,0.0,2.0,93,0.00,,,0.19,weatherlink.com 1.10,2013-08-18 22:13:00,
2013-08-18 18:28:00,73.3,71.0,30.11,East,101,1.0,2.0,93,0.00,,,0.19,weatherlink.com 1.10,2013-08-18 22:28:00,
2013-08-18 18:43:00,73.2,71.0,30.11,ESE,110,0.0,1.0,94,0.00,,,0.19,weatherlink.com 1.10,2013-08-18 22:43:00,
2013-08-18 18:58:00,72.9,71.0,30.12,ESE,110,0.0,1.0,94,0.00,,,0.19,weatherlink.com 1.10,2013-08-18 22:58:00,
2013-08-18 19:13:00,72.6,71.0,30.12,ESE,103,1.0,2.0,94,0.00,,,0.19,weatherlink.com 1.10,2013-08-18 23:13:00,
2013-08-18 19:28:00,72.3,71.0,30.11,ESE,106,0.0,3.0,95,0.00,,,0.19,weatherlink.com 1.10,2013-08-18 23:28:00,
2013-08-18 19:43:00,72.0,71.0,30.11,East,85,0.0,3.0,96,0.00,,,0.19,weatherlink.com 1.10,2013-08-18 23:43:00,
2013-08-18 19:58:00,71.8,71.0,30.11,ESE,106,0.0,2.0,96,0.00,,,0.19,weatherlink.com 1.10,2013-08-18 23:58:00,
2013-08-18 20:13:00,71.6,70.0,30.12,ESE,108,0.0,1.0,96,0.00,,,0.19,weatherlink.com 1.10,2013-08-19 00:13:00,
2013-08-18 20:28:00,71.5,70.0,30.12,East,101,0.0,1.0,96,0.00,,,0.19,weatherlink.com 1.10,2013-08-19 00:28:00,
2013-08-18 20:43:00,71.4,71.0,30.12,SE,131,0.0,0.0,97,0.00,,,0.19,weatherlink.com 1.10,2013-08-19 00:43:00,
2013-08-18 20:58:00,71.2,70.0,30.12,ESE,118,0.0,0.0,97,0.00,,,0.19,weatherlink.com 1.10,2013-08-19 00:58:00,
2013-08-18 21:13:00,71.0,70.0,30.12,ESE,106,0.0,2.0,97,0.00,,,0.19,weatherlink.com 1.10,2013-08-19 01:13:00,
2013-08-18 21:28:00,70.8,70.0,30.13,ESE,107,0.0,3.0,98,0.00,,,0.19,weatherlink.com 1.10,2013-08-19 01:28:00,
2013-08-18 21:43:00,70.8,70.0,30.14,East,98,0.0,4.0,98,0.00,,,0.19,weatherlink.com 1.10,2013-08-19 01:43:00,
2013-08-18 21:58:00,70.9,70.0,30.14,East,101,1.0,2.0,98,0.01,,,0.20,weatherlink.com 1.10,2013-08-19 01:58:00,
2013-08-18 22:13:00,70.7,70.0,30.14,ESE,105,0.0,3.0,98,0.03,,,0.22,weatherlink.com 1.10,2013-08-19 02:13:00,
2013-08-18 22:28:00,70.5,70.0,30.14,ESE,117,1.0,5.0,98,0.04,,,0.23,weatherlink.com 1.10,2013-08-19 02:28:00,
2013-08-18 22:43:00,70.3,70.0,30.12,ESE,120,0.0,5.0,99,0.04,,,0.23,weatherlink.com 1.10,2013-08-19 02:43:00,
2013-08-18 22:58:00,70.3,70.0,30.14,East,95,1.0,3.0,99,0.03,,,0.23,weatherlink.com 1.10,2013-08-19 02:58:00,
2013-08-18 23:13:00,70.3,70.0,30.14,East,89,0.0,3.0,99,0.00,,,0.23,weatherlink.com 1.10,2013-08-19 03:13:00,
2013-08-18 23:28:00,70.3,70.0,30.14,East,96,2.0,3.0,99,0.00,,,0.23,weatherlink.com 1.10,2013-08-19 03:28:00,
2013-08-18 23:43:00,70.3,70.0,30.13,ESE,103,0.0,3.0,99,0.00,,,0.23,weatherlink.com 1.10,2013-08-19 03:43:00,
2013-08-18 23:58:00,70.3,70.0,30.13,East,89,0.0,3.0,99,0.00,,,0.23,weatherlink.com 1.10,2013-08-19 03:58:00,